Time;durP1;ratioP1;P1;durP2;ratioP2;P2;SDS_P1;SDS_P2;PMS_P1;PMS_P2;Temp;Humidity;BMP_temperature;BMP_pressure;BME280_temperature;BME280_humidity;BME280_pressure;Samples;Min_cycle;Max_cycle;Signal;HPM_P1;HPM_P2
2022/09/03 00:00:24;;;;;;;;;;;;;;;15.56;60.04;99793.88;4425318;32;19973;-90
2022/09/03 00:03:07;;;;;;;;;;;;;;;15.75;60.05;99799.06;4423729;32;20047;-89
2022/09/03 00:05:37;;;;;;;;;;;;;;;15.54;60.04;99800.97;4415505;32;19989;-88
2022/09/03 00:08:06;;;;;;;;;;;;;;;15.71;60.04;99804.56;4424835;32;20263;-90
2022/09/03 00:10:44;;;;;;;;;;;;;;;15.47;60.04;99810.09;4438811;32;20003;-90
2022/09/03 00:13:11;;;;;;;;;;;;;;;15.41;60.04;99797.31;4424566;32;19993;-90
2022/09/03 00:15:36;;;;;;;;;;;;;;;15.49;60.04;99794.28;4411843;32;20000;-89
2022/09/03 00:18:01;;;;;;;;;;;;;;;15.26;60.02;99798.06;4411777;32;20013;-89
2022/09/03 00:20:31;;;;;;;;;;;;;;;15.34;60.03;99796.75;4425552;32;19994;-92
2022/09/03 00:22:57;;;;;;;;;;;;;;;15.39;60.02;99800.94;4412356;32;19988;-90
2022/09/03 00:25:24;;;;;;;;;;;;;;;15.31;60.03;99796.91;4411651;32;20595;-89
2022/09/03 00:27:50;;;;;;;;;;;;;;;15.58;60.04;99799.03;4411608;32;19993;-89
2022/09/03 00:30:16;;;;;;;;;;;;;;;15.08;60.01;99801.59;4411587;32;20021;-89
2022/09/03 00:32:42;;;;;;;;;;;;;;;15.02;60.01;99798.38;4411809;32;20635;-89
2022/09/03 00:35:15;;;;;;;;;;;;;;;15.14;60.01;99806.53;4409068;32;19996;-90
2022/09/03 00:37:41;;;;;;;;;;;;;;;15.03;60.01;99797.44;4411833;32;20031;-89
2022/09/03 00:40:08;;;;;;;;;;;;;;;15.18;60.02;99789.75;4412244;32;19985;-90
2022/09/03 00:42:49;;;;;;;;;;;;;;;15.18;60.02;99795.84;4412226;32;20402;-89
2022/09/03 00:45:28;;;;;;;;;;;;;;;14.95;60.01;99794.38;4412212;32;20477;-90
2022/09/03 00:48:00;;;;;;;;;;;;;;;15.09;60.02;99798.91;4427948;32;19982;-90
2022/09/03 00:50:32;;;;;;;;;;;;;;;15.09;60.00;99787.56;4435825;32;19968;-91
2022/09/03 00:53:18;;;;;;;;;;;;;;;15.12;60.01;99793.50;4427383;32;19980;-92
2022/09/03 00:55:57;;;;;;;;;;;;;;;15.05;60.01;99798.22;4400022;32;19953;-91
2022/09/03 00:58:28;;;;;;;;;;;;;;;14.71;59.98;99798.19;4413765;32;19965;-92
2022/09/03 01:00:53;;;;;;;;;;;;;;;14.75;59.99;99799.72;4425944;32;19994;-91
2022/09/03 01:03:25;;;;;;;;;;;;;;;15.07;60.01;99802.53;4423056;32;20019;-92
2022/09/03 01:06:02;;;;;;;;;;;;;;;14.89;60.00;99805.13;4407291;32;19958;-91
2022/09/03 01:08:30;;;;;;;;;;;;;;;15.11;60.02;99804.06;4428143;32;19993;-91
2022/09/03 01:11:00;;;;;;;;;;;;;;;14.92;60.00;99804.16;4425209;32;20012;-91
2022/09/03 01:13:28;;;;;;;;;;;;;;;14.93;60.00;99811.94;4412949;32;19992;-91
2022/09/03 01:16:15;;;;;;;;;;;;;;;14.78;60.00;99820.53;4433290;32;19987;-91
2022/09/03 01:18:44;;;;;;;;;;;;;;;14.93;60.00;99817.19;4430114;32;19989;-92
2022/09/03 01:21:12;;;;;;;;;;;;;;;14.79;60.00;99819.63;4426739;32;19997;-92
2022/09/03 01:24:02;;;;;;;;;;;;;;;14.70;59.98;99822.69;4427419;32;19987;-95
2022/09/03 01:26:39;;;;;;;;;;;;;;;14.86;60.00;99817.53;4416907;32;19978;-96
2022/09/03 01:29:15;;;;;;;;;;;;;;;14.58;59.98;99818.87;4418672;32;20020;-96
2022/09/03 01:31:52;;;;;;;;;;;;;;;14.89;60.00;99815.63;4416579;32;20013;-96
2022/09/03 01:34:29;;;;;;;;;;;;;;;14.77;59.99;99824.09;4430395;32;19994;-96
2022/09/03 01:36:54;;;;;;;;;;;;;;;14.70;59.99;99820.06;4432107;32;20053;-96
2022/09/03 01:39:32;;;;;;;;;;;;;;;14.98;60.01;99815.19;4430298;32;20326;-95
2022/09/03 01:42:14;;;;;;;;;;;;;;;14.81;59.99;99817.78;4416991;32;20034;-94
2022/09/03 01:44:52;;;;;;;;;;;;;;;14.79;60.00;99817.00;4427951;32;20004;-94
2022/09/03 01:47:36;;;;;;;;;;;;;;;15.11;60.02;99819.81;4419350;32;19985;-94
2022/09/03 01:50:06;;;;;;;;;;;;;;;14.77;59.99;99824.09;4417792;32;20001;-93
2022/09/03 01:52:51;;;;;;;;;;;;;;;14.93;60.00;99826.81;4412880;32;19994;-94
2022/09/03 01:55:25;;;;;;;;;;;;;;;14.67;59.99;99822.84;4412974;32;19978;-94
2022/09/03 01:57:55;;;;;;;;;;;;;;;14.61;59.99;99828.34;4413188;32;19988;-93
2022/09/03 02:00:20;;;;;;;;;;;;;;;14.59;59.98;99822.34;4428027;32;20040;-93
2022/09/03 02:02:49;;;;;;;;;;;;;;;14.57;59.98;99830.25;4415552;32;20343;-93
2022/09/03 02:05:17;;;;;;;;;;;;;;;14.58;59.98;99826.72;4415510;32;20727;-92
2022/09/03 02:07:43;;;;;;;;;;;;;;;14.77;59.99;99826.69;4415208;32;20001;-93
2022/09/03 02:10:13;;;;;;;;;;;;;;;14.84;60.00;99822.84;4414705;32;20001;-93
2022/09/03 02:12:39;;;;;;;;;;;;;;;14.69;59.98;99821.00;4426747;32;20045;-93
2022/09/03 02:15:10;;;;;;;;;;;;;;;14.52;59.98;99832.25;4413034;32;19977;-89
2022/09/03 02:17:35;;;;;;;;;;;;;;;14.47;59.97;99828.16;4426323;32;20330;-91
2022/09/03 02:20:05;;;;;;;;;;;;;;;14.49;59.98;99827.16;4414445;32;20505;-95
2022/09/03 02:22:30;;;;;;;;;;;;;;;14.45;59.97;99828.22;4415844;32;20008;-95
2022/09/03 02:24:56;;;;;;;;;;;;;;;14.51;59.98;99829.72;4415190;32;20055;-93
2022/09/03 02:27:21;;;;;;;;;;;;;;;14.48;59.98;99829.84;4415162;32;20129;-94
2022/09/03 02:29:46;;;;;;;;;;;;;;;14.27;59.97;99826.44;4416014;32;20005;-95
2022/09/03 02:32:13;;;;;;;;;;;;;;;14.16;59.96;99826.91;4416738;32;19981;-95
2022/09/03 02:34:39;;;;;;;;;;;;;;;14.38;59.97;99827.63;4414879;32;19957;-94
2022/09/03 02:37:11;;;;;;;;;;;;;;;14.24;59.96;99826.56;4417593;32;19996;-95
2022/09/03 02:39:38;;;;;;;;;;;;;;;14.33;59.96;99821.75;4419071;32;20061;-93
2022/09/03 02:42:03;;;;;;;;;;;;;;;14.47;59.97;99828.16;4420981;32;19989;-92
2022/09/03 02:44:30;;;;;;;;;;;;;;;14.60;59.98;99830.12;4424285;32;19982;-93
2022/09/03 02:46:59;;;;;;;;;;;;;;;14.37;59.97;99820.69;4426525;32;19998;-93
2022/09/03 02:49:26;;;;;;;;;;;;;;;14.55;59.98;99824.25;4418681;32;19972;-93
2022/09/03 02:51:51;;;;;;;;;;;;;;;14.50;59.98;99823.63;4415153;32;19993;-94
2022/09/03 02:54:16;;;;;;;;;;;;;;;14.45;59.97;99828.22;4415019;32;19977;-93
2022/09/03 02:56:42;;;;;;;;;;;;;;;14.73;59.99;99826.00;4412301;32;20004;-94
2022/09/03 02:59:07;;;;;;;;;;;;;;;14.69;59.98;99832.31;4414944;32;20011;-94
2022/09/03 03:01:32;;;;;;;;;;;;;;;14.41;59.98;99831.84;4414846;32;20009;-95
2022/09/03 03:03:58;;;;;;;;;;;;;;;14.33;59.96;99821.75;4414588;32;20609;-94
2022/09/03 03:06:23;;;;;;;;;;;;;;;14.25;59.96;99829.12;4414917;32;20319;-93
2022/09/03 03:08:48;;;;;;;;;;;;;;;14.33;59.96;99831.38;4413598;32;19989;-91
2022/09/03 03:11:17;;;;;;;;;;;;;;;14.17;59.96;99823.34;4413625;32;20020;-92
2022/09/03 03:13:42;;;;;;;;;;;;;;;14.24;59.96;99821.34;4426264;32;20034;-92
2022/09/03 03:16:08;;;;;;;;;;;;;;;14.26;59.97;99822.97;4413780;32;20311;-92
2022/09/03 03:18:34;;;;;;;;;;;;;;;14.38;59.97;99827.63;4413408;32;19966;-93
2022/09/03 03:21:03;;;;;;;;;;;;;;;14.12;59.96;99826.19;4414653;32;20023;-95
2022/09/03 03:23:30;;;;;;;;;;;;;;;14.32;59.96;99832.28;4414830;32;19992;-93
2022/09/03 03:25:59;;;;;;;;;;;;;;;14.21;59.97;99834.56;4411606;32;19992;-93
2022/09/03 03:28:25;;;;;;;;;;;;;;;14.45;59.97;99838.72;4414755;32;20009;-94
2022/09/03 03:30:51;;;;;;;;;;;;;;;14.56;59.98;99838.19;4415584;32;19989;-94
2022/09/03 03:33:16;;;;;;;;;;;;;;;14.30;59.96;99840.22;4415081;32;20004;-95
2022/09/03 03:35:42;;;;;;;;;;;;;;;14.23;59.96;99844.06;4412005;32;19994;-96
2022/09/03 03:38:07;;;;;;;;;;;;;;;14.21;59.96;99848.50;4428041;32;20031;-94
2022/09/03 03:40:33;;;;;;;;;;;;;;;14.25;59.96;99843.97;4428223;32;20353;-94
2022/09/03 03:42:58;;;;;;;;;;;;;;;14.30;59.96;99849.84;4426770;32;19962;-91
2022/09/03 03:45:24;;;;;;;;;;;;;;;14.41;59.98;99842.34;4412964;32;19993;-91
2022/09/03 03:47:49;;;;;;;;;;;;;;;14.23;59.96;99841.44;4412761;32;19999;-91
2022/09/03 03:50:15;;;;;;;;;;;;;;;14.39;59.97;99847.66;4412460;32;19997;-92
2022/09/03 03:52:40;;;;;;;;;;;;;;;14.57;59.98;99851.22;4412302;32;20081;-91
2022/09/03 03:55:06;;;;;;;;;;;;;;;14.44;59.97;99850.09;4412179;32;20038;-90
2022/09/03 03:57:41;;;;;;;;;;;;;;;14.37;59.97;99836.38;4425120;32;20013;-91
2022/09/03 04:00:07;;;;;;;;;;;;;;;14.49;59.98;99850.75;4412362;32;20024;-91
2022/09/03 04:02:32;;;;;;;;;;;;;;;14.51;59.98;99850.66;4418496;32;20352;-94
2022/09/03 04:04:57;;;;;;;;;;;;;;;14.46;59.97;99855.28;4412881;32;19974;-94
2022/09/03 04:07:23;;;;;;;;;;;;;;;14.33;59.96;99863.66;4420049;32;20242;-94
2022/09/03 04:09:48;;;;;;;;;;;;;;;14.46;59.97;99860.50;4417056;32;20012;-94
2022/09/03 04:12:14;;;;;;;;;;;;;;;14.54;59.98;99863.63;4418612;32;19973;-94
2022/09/03 04:14:39;;;;;;;;;;;;;;;14.57;59.98;99863.47;4430206;32;20145;-95
2022/09/03 04:17:04;;;;;;;;;;;;;;;14.36;59.97;99865.28;4428226;32;20255;-94
2022/09/03 04:19:29;;;;;;;;;;;;;;;14.31;59.96;99864.63;4427710;32;20004;-94
2022/09/03 04:21:55;;;;;;;;;;;;;;;14.38;59.97;99866.91;4412826;32;19998;-95
2022/09/03 04:24:20;;;;;;;;;;;;;;;14.53;59.97;99867.16;4419147;32;20008;-93
2022/09/03 04:26:46;;;;;;;;;;;;;;;14.46;59.97;99877.06;4427885;32;20472;-94
2022/09/03 04:29:11;;;;;;;;;;;;;;;14.22;59.96;99871.16;4427969;32;20062;-93
2022/09/03 04:31:36;;;;;;;;;;;;;;;14.51;59.98;99869.00;4413967;32;20004;-90
2022/09/03 04:34:02;;;;;;;;;;;;;;;14.46;59.97;99871.00;4412946;32;20005;-91
2022/09/03 04:36:27;;;;;;;;;;;;;;;14.60;59.98;99871.19;4421992;32;19992;-92
2022/09/03 04:38:53;;;;;;;;;;;;;;;14.65;59.99;99880.53;4422315;32;19989;-91
2022/09/03 04:41:19;;;;;;;;;;;;;;;14.60;59.98;99879.03;4413080;32;19989;-91
2022/09/03 04:43:44;;;;;;;;;;;;;;;14.59;59.98;99880.81;4412700;32;20018;-91
2022/09/03 04:46:11;;;;;;;;;;;;;;;14.59;59.98;99880.81;4425660;32;20075;-93
2022/09/03 04:48:36;;;;;;;;;;;;;;;14.47;59.97;99883.16;4412538;32;20298;-93
2022/09/03 04:51:09;;;;;;;;;;;;;;;14.38;59.97;99881.75;4413660;32;20017;-92
2022/09/03 04:53:35;;;;;;;;;;;;;;;14.43;59.97;99885.94;4420059;32;19988;-93
2022/09/03 04:56:01;;;;;;;;;;;;;;;14.57;59.98;99882.66;4410129;32;19994;-91
2022/09/03 04:58:26;;;;;;;;;;;;;;;14.47;59.97;99891.88;4412006;32;20028;-93
2022/09/03 05:00:51;;;;;;;;;;;;;;;14.56;59.98;99878.34;4414053;32;20329;-93
2022/09/03 05:03:17;;;;;;;;;;;;;;;14.74;59.99;99882.72;4416330;32;19974;-93
2022/09/03 05:05:42;;;;;;;;;;;;;;;14.70;59.98;99886.41;4413070;32;20051;-91
2022/09/03 05:08:07;;;;;;;;;;;;;;;14.80;60.00;99881.59;4425389;32;19989;-91
2022/09/03 05:10:32;;;;;;;;;;;;;;;14.89;60.00;99878.50;4411762;32;27681;-92
2022/09/03 05:13:02;;;;;;;;;;;;;;;14.77;59.99;99879.13;4412202;32;19999;-92
2022/09/03 05:15:28;;;;;;;;;;;;;;;14.84;59.99;99885.75;4411839;32;20044;-91
2022/09/03 05:18:00;;;;;;;;;;;;;;;14.95;60.00;99882.62;4413066;32;20333;-91
2022/09/03 05:20:26;;;;;;;;;;;;;;;14.98;60.00;99885.09;4412811;32;19982;-91
2022/09/03 05:22:52;;;;;;;;;;;;;;;15.19;60.02;99885.84;4424951;32;20022;-91
2022/09/03 05:25:17;;;;;;;;;;;;;;;15.01;60.00;99892.81;4429103;32;20023;-95
2022/09/03 05:27:43;;;;;;;;;;;;;;;15.02;60.01;99882.25;4427188;32;19993;-95
2022/09/03 05:30:08;;;;;;;;;;;;;;;15.20;60.01;99877.91;4414011;32;20003;-92
2022/09/03 05:32:33;;;;;;;;;;;;;;;15.46;60.02;99879.25;4412824;32;19978;-93
2022/09/03 05:34:59;;;;;;;;;;;;;;;15.45;60.02;99880.16;4409698;32;20353;-91
2022/09/03 05:37:24;;;;;;;;;;;;;;;15.59;60.03;99879.50;4412166;32;20306;-89
2022/09/03 05:39:49;;;;;;;;;;;;;;;15.77;60.04;99875.94;4425922;32;19985;-90
2022/09/03 05:42:15;;;;;;;;;;;;;;;15.99;60.05;99873.06;4427500;32;19987;-91
2022/09/03 05:44:40;;;;;;;;;;;;;;;16.07;60.06;99875.25;4422216;32;19973;-92
2022/09/03 05:47:05;;;;;;;;;;;;;;;16.13;60.06;99875.81;4415207;32;20318;-95
2022/09/03 05:49:31;;;;;;;;;;;;;;;16.20;60.07;99878.97;4412143;32;20008;-92
2022/09/03 05:51:56;;;;;;;;;;;;;;;16.50;60.08;99887.81;4410917;32;20001;-89
2022/09/03 05:54:21;;;;;;;;;;;;;;;16.54;60.08;99884.09;4423552;32;20048;-89
2022/09/03 05:56:47;;;;;;;;;;;;;;;16.56;60.09;99890.12;4423353;32;20016;-89
2022/09/03 05:59:12;;;;;;;;;;;;;;;16.71;60.10;99891.09;4410307;32;26165;-89
2022/09/03 06:01:38;;;;;;;;;;;;;;;16.85;60.11;99880.66;4412974;32;20030;-89
2022/09/03 06:04:04;;;;;;;;;;;;;;;17.03;60.12;99883.19;4412706;32;19989;-88
2022/09/03 06:06:30;;;;;;;;;;;;;;;17.24;60.12;99881.13;4425532;32;20045;-91
2022/09/03 06:09:01;;;;;;;;;;;;;;;17.18;60.12;99882.31;4412922;32;19973;-89
2022/09/03 06:11:29;;;;;;;;;;;;;;;17.62;60.15;99873.63;4412736;32;19961;-89
2022/09/03 06:14:00;;;;;;;;;;;;;;;17.78;60.16;99874.47;4425918;32;20014;-90
2022/09/03 06:16:25;;;;;;;;;;;;;;;17.79;60.16;99870.91;4425944;32;19993;-90
2022/09/03 06:18:50;;;;;;;;;;;;;;;18.11;60.17;99866.31;4413213;32;20016;-90
2022/09/03 06:21:16;;;;;;;;;;;;;;;18.37;60.18;99865.53;4412752;32;19981;-91
2022/09/03 06:23:41;;;;;;;;;;;;;;;18.51;60.19;99867.34;4412873;32;20017;-89
2022/09/03 06:26:11;;;;;;;;;;;;;;;18.46;60.19;99866.78;4412851;32;20039;-90
2022/09/03 06:28:37;;;;;;;;;;;;;;;18.73;60.20;99872.13;4415863;32;19981;-89
2022/09/03 06:31:03;;;;;;;;;;;;;;;18.84;60.20;99863.53;4440420;32;19985;-90
2022/09/03 06:33:31;;;;;;;;;;;;;;;18.98;60.21;99864.34;4430087;32;19974;-90
2022/09/03 06:35:57;;;;;;;;;;;;;;;19.04;60.22;99855.16;4413039;32;20322;-89
2022/09/03 06:38:23;;;;;;;;;;;;;;;19.23;60.22;99855.66;4439753;32;20027;-88
2022/09/03 06:40:52;;;;;;;;;;;;;;;19.36;60.23;99858.31;4425373;32;19977;-88
2022/09/03 06:43:17;;;;;;;;;;;;;;;19.43;60.23;99854.34;4425669;32;19985;-89
2022/09/03 06:45:43;;;;;;;;;;;;;;;19.59;60.24;99849.72;4412733;32;20290;-89
2022/09/03 06:48:08;;;;;;;;;;;;;;;19.52;60.24;99845.78;4413885;32;19989;-89
2022/09/03 06:50:33;;;;;;;;;;;;;;;19.58;60.24;99848.03;4439496;32;20013;-94
2022/09/03 06:52:58;;;;;;;;;;;;;;;19.49;60.24;99858.34;4414009;32;19985;-90
2022/09/03 06:55:24;;;;;;;;;;;;;;;19.60;60.24;99853.22;4413132;32;20042;-90
2022/09/03 06:57:55;;;;;;;;;;;;;;;19.76;60.25;99853.03;4425728;32;20333;-91
2022/09/03 07:00:22;;;;;;;;;;;;;;;19.97;60.26;99848.91;4412268;32;20005;-90
2022/09/03 07:02:47;;;;;;;;;;;;;;;20.12;60.27;99849.66;4420627;32;20005;-91
2022/09/03 07:05:12;;;;;;;;;;;;;;;20.07;60.26;99846.47;4412968;32;20259;-90
2022/09/03 07:07:38;;;;;;;;;;;;;;;20.35;60.28;99846.25;4426175;32;19985;-91
2022/09/03 07:10:03;;;;;;;;;;;;;;;20.37;60.28;99848.78;4413153;32;20012;-90
2022/09/03 07:12:28;;;;;;;;;;;;;;;20.37;60.28;99846.16;4440352;32;19986;-90
2022/09/03 07:14:53;;;;;;;;;;;;;;;20.60;60.30;99849.81;4440403;32;20602;-89
2022/09/03 07:17:19;;;;;;;;;;;;;;;20.53;60.29;99847.59;4436115;32;20016;-90
2022/09/03 07:19:44;;;;;;;;;;;;;;;20.64;60.30;99846.84;4426539;32;19965;-89
2022/09/03 07:22:10;;;;;;;;;;;;;;;20.93;60.31;99844.72;4425402;32;20005;-90
2022/09/03 07:24:36;;;;;;;;;;;;;;;20.98;60.31;99842.56;4425061;32;19994;-89
2022/09/03 07:27:01;;;;;;;;;;;;;;;21.06;60.32;99837.59;4425012;32;20010;-90
2022/09/03 07:29:27;;;;;;;;;;;;;;;21.30;60.33;99834.94;4424969;32;20009;-90
2022/09/03 07:31:52;;;;;;;;;;;;;;;21.39;60.33;99844.00;4425119;32;19989;-89
2022/09/03 07:34:18;;;;;;;;;;;;;;;21.57;60.35;99842.59;4412073;32;19996;-90
2022/09/03 07:36:49;;;;;;;;;;;;;;;21.61;60.35;99843.22;4412285;32;20023;-90
2022/09/03 07:39:15;;;;;;;;;;;;;;;21.75;60.36;99838.53;4425440;32;19981;-89
2022/09/03 07:41:44;;;;;;;;;;;;;;;21.78;60.36;99842.78;4439102;32;20263;-90
2022/09/03 07:44:10;;;;;;;;;;;;;;;21.86;60.36;99847.47;4425345;32;20009;-90
2022/09/03 07:46:35;;;;;;;;;;;;;;;21.91;60.37;99837.34;4424822;32;19977;-90
2022/09/03 07:49:07;;;;;;;;;;;;;;;22.14;60.38;99849.69;4439224;32;19988;-89
2022/09/03 07:51:33;;;;;;;;;;;;;;;22.20;60.38;99848.34;4425875;32;20035;-89
2022/09/03 07:53:58;;;;;;;;;;;;;;;22.31;60.38;99849.22;4425085;32;20327;-88
2022/09/03 07:56:24;;;;;;;;;;;;;;;22.30;60.39;99852.84;4424987;32;19969;-88
2022/09/03 07:58:49;;;;;;;;;;;;;;;22.49;60.41;99843.44;4412332;32;19993;-88
2022/09/03 08:01:15;;;;;;;;;;;;;;;22.31;60.39;99843.06;4425070;32;20016;-89
2022/09/03 08:03:41;;;;;;;;;;;;;;;22.51;60.40;99849.44;4411950;32;20054;-88
2022/09/03 08:06:07;;;;;;;;;;;;;;;22.68;60.41;99838.31;4424630;32;19985;-88
2022/09/03 08:08:33;;;;;;;;;;;;;;;22.81;60.42;99843.47;4438906;32;20352;-89
2022/09/03 08:11:11;;;;;;;;;;;;;;;22.91;60.42;99849.75;4412009;32;20067;-89
2022/09/03 08:13:37;;;;;;;;;;;;;;;22.74;60.42;99844.94;4412547;32;20008;-89
2022/09/03 08:16:03;;;;;;;;;;;;;;;22.89;60.42;99843.72;4431185;32;20013;-90
2022/09/03 08:18:30;;;;;;;;;;;;;;;22.99;60.43;99847.31;4439133;32;19983;-90
2022/09/03 08:20:58;;;;;;;;;;;;;;;23.09;60.43;99844.75;4432624;32;19981;-90
2022/09/03 08:23:23;;;;;;;;;;;;;;;23.18;60.43;99844.81;4424959;32;20015;-89
2022/09/03 08:25:48;;;;;;;;;;;;;;;23.12;60.44;99847.97;4438749;32;20338;-89
2022/09/03 08:28:13;;;;;;;;;;;;;;;23.29;60.44;99843.94;4438483;32;19989;-88
2022/09/03 08:30:39;;;;;;;;;;;;;;;23.46;60.45;99853.16;4413024;32;22203;-91
2022/09/03 08:33:05;;;;;;;;;;;;;;;23.61;60.46;99838.59;4411672;32;19989;-87
2022/09/03 08:35:33;;;;;;;;;;;;;;;23.66;60.46;99848.84;4408542;32;20056;-88
2022/09/03 08:38:04;;;;;;;;;;;;;;;23.80;60.47;99846.69;4423742;32;19969;-87
2022/09/03 08:40:29;;;;;;;;;;;;;;;24.05;60.49;99855.22;4424324;32;19985;-85
2022/09/03 08:43:15;;;;;;;;;;;;;;;23.83;60.47;99850.91;4421832;32;20048;-85
2022/09/03 08:45:40;;;;;;;;;;;;;;;24.03;60.48;99850.06;4438142;32;20080;-86
2022/09/03 08:48:07;;;;;;;;;;;;;;;24.15;60.49;99854.31;4426529;32;19992;-85
2022/09/03 08:50:36;;;;;;;;;;;;;;;24.39;60.50;99851.38;4426555;32;19989;-86
2022/09/03 08:53:19;;;;;;;;;;;;;;;24.51;60.50;99844.12;4424575;32;20042;-85
2022/09/03 08:55:59;;;;;;;;;;;;;;;24.43;60.50;99844.81;4424012;32;19998;-86
2022/09/03 08:58:25;;;;;;;;;;;;;;;24.62;60.52;99849.34;4424511;32;20029;-86
2022/09/03 09:01:10;;;;;;;;;;;;;;;24.76;60.52;99848.94;4423980;32;20605;-86
2022/09/03 09:03:41;;;;;;;;;;;;;;;24.96;60.53;99846.31;4438201;32;20036;-86
2022/09/03 09:06:06;;;;;;;;;;;;;;;25.08;60.54;99835.44;4424044;32;19973;-85
2022/09/03 09:08:34;;;;;;;;;;;;;;;25.08;60.54;99829.25;4423509;32;20325;-85
2022/09/03 09:11:18;;;;;;;;;;;;;;;24.94;60.53;99841.13;4410451;32;20047;-86
2022/09/03 09:13:46;;;;;;;;;;;;;;;25.06;60.53;99832.03;4424104;32;20038;-87
2022/09/03 09:16:14;;;;;;;;;;;;;;;25.30;60.56;99828.97;4424139;32;20013;-88
2022/09/03 09:18:39;;;;;;;;;;;;;;;25.52;60.56;99818.97;4424139;32;20007;-88
2022/09/03 09:21:15;;;;;;;;;;;;;;;25.72;60.57;99815.31;4423641;32;20315;-87
2022/09/03 09:23:42;;;;;;;;;;;;;;;25.81;60.58;99818.97;4414061;32;19994;-86
2022/09/03 09:26:12;;;;;;;;;;;;;;;25.84;60.57;99814.19;4423576;32;20001;-87
2022/09/03 09:28:40;;;;;;;;;;;;;;;25.86;60.58;99811.37;4424189;32;20031;-86
2022/09/03 09:31:06;;;;;;;;;;;;;;;26.12;60.60;99816.88;4437626;32;19989;-87
2022/09/03 09:33:31;;;;;;;;;;;;;;;26.19;60.60;99810.81;4437860;32;20318;-87
2022/09/03 09:36:05;;;;;;;;;;;;;;;26.11;60.60;99807.22;4428704;32;19985;-88
2022/09/03 09:38:36;;;;;;;;;;;;;;;26.22;60.60;99807.84;4425910;32;20381;-85
2022/09/03 09:41:12;;;;;;;;;;;;;;;26.26;60.61;99805.72;4425824;32;19996;-89
2022/09/03 09:43:38;;;;;;;;;;;;;;;26.47;60.61;99809.00;4412594;32;19970;-87
2022/09/03 09:46:08;;;;;;;;;;;;;;;26.53;60.61;99808.44;4424552;32;20370;-86
2022/09/03 09:48:36;;;;;;;;;;;;;;;26.65;60.63;99810.87;4438905;32;20042;-86
2022/09/03 09:51:07;;;;;;;;;;;;;;;26.83;60.63;99811.75;4438698;32;20018;-86
2022/09/03 09:53:33;;;;;;;;;;;;;;;26.91;60.63;99811.81;4438766;32;20077;-86
2022/09/03 09:55:59;;;;;;;;;;;;;;;26.83;60.63;99815.25;4424768;32;19984;-87
2022/09/03 09:58:25;;;;;;;;;;;;;;;26.92;60.63;99810.81;4438540;32;20031;-86
2022/09/03 10:00:58;;;;;;;;;;;;;;;27.21;60.65;99807.97;4438725;32;19978;-87
2022/09/03 10:03:23;;;;;;;;;;;;;;;27.46;60.67;99800.97;4424479;32;20370;-86
2022/09/03 10:06:52;;;;;;;;;;;;;;;27.68;60.67;99799.62;4424690;32;20023;-87
2022/09/03 10:08:47;;;;;;;;;;;;;;;27.42;60.66;99804.94;4432162;32;19945;-88
2022/09/03 10:11:13;;;;;;;;;;;;;;;27.45;60.66;99801.97;4448164;32;19996;-86
2022/09/03 10:13:44;;;;;;;;;;;;;;;27.67;60.68;99806.81;4414910;32;19999;-87
2022/09/03 10:16:15;;;;;;;;;;;;;;;27.78;60.68;99806.56;4425999;32;19981;-88
2022/09/03 10:18:50;;;;;;;;;;;;;;;27.68;60.67;99810.34;4439544;32;20171;-87
2022/09/03 10:21:24;;;;;;;;;;;;;;;27.59;60.67;99816.59;4438920;32;20010;-83
2022/09/03 10:24:00;;;;;;;;;;;;;;;27.72;60.68;99806.38;4425505;32;19989;-83
2022/09/03 10:26:28;;;;;;;;;;;;;;;27.83;60.69;99804.25;4425237;32;20025;-85
2022/09/03 10:28:55;;;;;;;;;;;;;;;27.76;60.68;99805.91;4425561;32;19986;-84
2022/09/03 10:31:39;;;;;;;;;;;;;;;27.91;60.69;99810.63;4439000;32;19981;-85
2022/09/03 10:34:39;;;;;;;;;;;;;;;27.99;60.70;99797.31;4438772;32;20002;-84
2022/09/03 10:37:07;;;;;;;;;;;;;;;28.19;60.70;99800.59;4367467;32;20011;-85
2022/09/03 10:39:41;;;;;;;;;;;;;;;28.24;60.72;99800.97;4414320;32;19977;-85
2022/09/03 10:42:20;;;;;;;;;;;;;;;28.25;60.71;99792.78;4439086;32;20024;-85
2022/09/03 10:44:45;;;;;;;;;;;;;;;28.50;60.72;99790.19;4438544;32;20008;-85
2022/09/03 10:47:18;;;;;;;;;;;;;;;28.57;60.73;99796.56;4424122;32;19982;-85
2022/09/03 10:50:00;;;;;;;;;;;;;;;28.74;60.73;99792.94;4438573;32;19966;-88
2022/09/03 10:52:26;;;;;;;;;;;;;;;28.92;60.73;99785.63;4439121;32;20435;-85
2022/09/03 10:55:04;;;;;;;;;;;;;;;28.84;60.73;99776.69;4438993;32;20037;-84
2022/09/03 10:57:48;;;;;;;;;;;;;;;28.91;60.74;99777.75;4438963;32;19996;-88
2022/09/03 11:00:14;;;;;;;;;;;;;;;29.02;60.75;99778.25;4413731;32;20017;-88
2022/09/03 11:02:42;;;;;;;;;;;;;;;29.06;60.75;99772.56;4424569;32;19993;-89
2022/09/03 11:05:28;;;;;;;;;;;;;;;28.94;60.75;99770.22;4438243;32;19989;-89
2022/09/03 11:07:58;;;;;;;;;;;;;;;29.18;60.76;99768.56;4424582;32;20073;-89
2022/09/03 11:10:27;;;;;;;;;;;;;;;29.33;60.77;99772.22;4411839;32;19977;-89
2022/09/03 11:13:01;;;;;;;;;;;;;;;29.43;60.77;99766.69;4438803;32;19985;-88
2022/09/03 11:15:28;;;;;;;;;;;;;;;29.51;60.78;99772.06;4424552;32;19988;-90
2022/09/03 11:17:58;;;;;;;;;;;;;;;29.69;60.78;99771.87;4411912;32;19992;-90
2022/09/03 11:20:24;;;;;;;;;;;;;;;29.54;60.78;99774.41;4424311;32;19992;-88
2022/09/03 11:22:50;;;;;;;;;;;;;;;29.34;60.77;99771.25;4438759;32;19982;-90
2022/09/03 11:25:16;;;;;;;;;;;;;;;29.40;60.77;99778.59;4424250;32;19997;-85
2022/09/03 11:27:41;;;;;;;;;;;;;;;29.30;60.76;99775.22;4424416;32;19969;-86
2022/09/03 11:30:13;;;;;;;;;;;;;;;29.47;60.77;99771.56;4438568;32;20031;-85
2022/09/03 11:32:39;;;;;;;;;;;;;;;29.69;60.78;99771.87;4411592;32;19986;-85
2022/09/03 11:35:12;;;;;;;;;;;;;;;29.77;60.79;99771.84;4431769;32;20090;-86
2022/09/03 11:37:44;;;;;;;;;;;;;;;29.85;60.79;99778.03;4421377;32;20035;-91
2022/09/03 11:40:12;;;;;;;;;;;;;;;29.97;60.80;99770.44;4411762;32;20049;-88
2022/09/03 11:42:38;;;;;;;;;;;;;;;30.05;60.81;99765.09;4438823;32;20004;-89
2022/09/03 11:45:22;;;;;;;;;;;;;;;30.15;60.81;99768.41;4425006;32;20035;-88
2022/09/03 11:47:47;;;;;;;;;;;;;;;30.11;60.80;99771.59;4438970;32;19989;-86
2022/09/03 11:50:13;;;;;;;;;;;;;;;30.14;60.81;99772.09;4425370;32;20278;-89
2022/09/03 11:52:39;;;;;;;;;;;;;;;30.28;60.82;99766.97;4440293;32;20435;-89
2022/09/03 11:55:05;;;;;;;;;;;;;;;30.42;60.82;99763.56;4413911;32;19962;-88
2022/09/03 11:57:30;;;;;;;;;;;;;;;30.64;60.83;99770.84;4395688;32;788875;-88
2022/09/03 12:00:08;;;;;;;;;;;;;;;30.77;60.84;99775.66;4426284;32;20031;-89
2022/09/03 12:02:34;;;;;;;;;;;;;;;30.79;60.84;99771.75;4445758;32;19989;-88
2022/09/03 12:04:59;;;;;;;;;;;;;;;30.63;60.83;99777.25;4412918;32;19981;-87
2022/09/03 12:07:43;;;;;;;;;;;;;;;30.47;60.83;99771.91;4432019;32;19982;-88
2022/09/03 12:10:24;;;;;;;;;;;;;;;30.34;60.82;99777.03;4435919;32;20573;-87
2022/09/03 12:12:56;;;;;;;;;;;;;;;30.09;60.80;99773.63;4438318;32;19981;-86
2022/09/03 12:15:40;;;;;;;;;;;;;;;30.13;60.81;99778.47;4438233;32;19989;-86
2022/09/03 12:18:19;;;;;;;;;;;;;;;30.22;60.82;99769.34;4438398;32;20357;-84
2022/09/03 12:20:49;;;;;;;;;;;;;;;30.27;60.81;99757.25;4425743;32;19974;-86
2022/09/03 12:23:25;;;;;;;;;;;;;;;29.70;60.78;99763.66;4424245;32;20653;-89
2022/09/03 12:25:51;;;;;;;;;;;;;;;30.00;60.80;99755.84;4438312;32;19997;-88
2022/09/03 12:28:18;;;;;;;;;;;;;;;30.13;60.81;99759.69;4424498;32;20094;-86
2022/09/03 12:30:43;;;;;;;;;;;;;;;30.16;60.82;99761.19;4411592;32;19981;-88
2022/09/03 12:33:10;;;;;;;;;;;;;;;30.32;60.82;99762.97;4424499;32;20354;-88
2022/09/03 12:35:36;;;;;;;;;;;;;;;30.35;60.82;99765.28;4425170;32;20004;-88
2022/09/03 12:38:01;;;;;;;;;;;;;;;30.32;60.82;99757.59;4439088;32;19978;-88
2022/09/03 12:40:28;;;;;;;;;;;;;;;30.51;60.84;99762.50;4425342;32;20012;-88
2022/09/03 12:42:53;;;;;;;;;;;;;;;30.52;60.84;99759.66;4425067;32;20456;-88
2022/09/03 12:45:22;;;;;;;;;;;;;;;30.54;60.83;99759.47;4425263;32;19997;-88
2022/09/03 12:47:48;;;;;;;;;;;;;;;30.33;60.82;99756.56;4425611;32;19978;-88
2022/09/03 12:50:14;;;;;;;;;;;;;;;30.46;60.83;99763.03;4439747;32;19958;-88
2022/09/03 12:52:41;;;;;;;;;;;;;;;30.38;60.83;99754.19;4422156;32;20501;-87
2022/09/03 12:55:15;;;;;;;;;;;;;;;30.45;60.83;99763.19;4437517;32;20040;-87